sensor_id;sensor_type;location;lat;lon;timestamp;temperature;humidity
6008;DHT22;3032;49.484;11.112;2024-03-02T00:01:10;8.50;99.90
6008;DHT22;3032;49.484;11.112;2024-03-02T00:03:37;8.40;99.90
6008;DHT22;3032;49.484;11.112;2024-03-02T00:06:04;8.40;99.90
6008;DHT22;3032;49.484;11.112;2024-03-02T00:08:29;8.60;99.90
6008;DHT22;3032;49.484;11.112;2024-03-02T00:11:00;8.70;99.90
6008;DHT22;3032;49.484;11.112;2024-03-02T00:13:26;8.70;99.90
6008;DHT22;3032;49.484;11.112;2024-03-02T00:15:56;8.50;99.90
6008;DHT22;3032;49.484;11.112;2024-03-02T00:18:33;8.60;99.90
6008;DHT22;3032;49.484;11.112;2024-03-02T00:21:00;8.70;99.90
6008;DHT22;3032;49.484;11.112;2024-03-02T00:23:33;8.80;99.90
6008;DHT22;3032;49.484;11.112;2024-03-02T00:25:59;8.90;99.90
6008;DHT22;3032;49.484;11.112;2024-03-02T00:28:27;9.00;99.90
6008;DHT22;3032;49.484;11.112;2024-03-02T00:31:04;9.00;99.90
6008;DHT22;3032;49.484;11.112;2024-03-02T00:35:58;8.90;99.90
6008;DHT22;3032;49.484;11.112;2024-03-02T00:38:25;9.00;99.90
6008;DHT22;3032;49.484;11.112;2024-03-02T00:40:51;9.10;99.90
6008;DHT22;3032;49.484;11.112;2024-03-02T00:43:44;9.00;99.90
6008;DHT22;3032;49.484;11.112;2024-03-02T00:46:11;9.00;99.90
6008;DHT22;3032;49.484;11.112;2024-03-02T00:48:39;9.20;99.90
6008;DHT22;3032;49.484;11.112;2024-03-02T00:51:04;9.40;99.90
6008;DHT22;3032;49.484;11.112;2024-03-02T00:53:31;9.30;99.90
6008;DHT22;3032;49.484;11.112;2024-03-02T00:55:58;9.20;99.90
6008;DHT22;3032;49.484;11.112;2024-03-02T00:58:25;9.10;99.90
6008;DHT22;3032;49.484;11.112;2024-03-02T01:00:50;9.40;99.90
6008;DHT22;3032;49.484;11.112;2024-03-02T01:03:16;9.70;99.90
6008;DHT22;3032;49.484;11.112;2024-03-02T01:05:42;10.00;99.90
6008;DHT22;3032;49.484;11.112;2024-03-02T01:08:08;10.20;99.90
6008;DHT22;3032;49.484;11.112;2024-03-02T01:10:34;10.30;99.90
6008;DHT22;3032;49.484;11.112;2024-03-02T01:12:59;10.70;99.90
6008;DHT22;3032;49.484;11.112;2024-03-02T01:15:25;10.20;99.90
6008;DHT22;3032;49.484;11.112;2024-03-02T01:17:51;10.50;99.90
6008;DHT22;3032;49.484;11.112;2024-03-02T01:20:16;10.50;99.90
6008;DHT22;3032;49.484;11.112;2024-03-02T01:22:42;10.00;99.90
6008;DHT22;3032;49.484;11.112;2024-03-02T01:25:08;9.90;99.90
6008;DHT22;3032;49.484;11.112;2024-03-02T01:27:34;9.90;99.90
6008;DHT22;3032;49.484;11.112;2024-03-02T01:30:00;9.80;99.90
6008;DHT22;3032;49.484;11.112;2024-03-02T01:32:25;9.90;99.90
6008;DHT22;3032;49.484;11.112;2024-03-02T01:34:51;9.80;99.90
6008;DHT22;3032;49.484;11.112;2024-03-02T01:37:16;9.80;99.90
6008;DHT22;3032;49.484;11.112;2024-03-02T01:39:42;9.70;99.90
6008;DHT22;3032;49.484;11.112;2024-03-02T01:42:08;9.60;99.90
6008;DHT22;3032;49.484;11.112;2024-03-02T01:44:33;9.50;99.90
6008;DHT22;3032;49.484;11.112;2024-03-02T01:46:59;9.40;99.90
6008;DHT22;3032;49.484;11.112;2024-03-02T01:49:24;9.50;99.90
6008;DHT22;3032;49.484;11.112;2024-03-02T01:51:50;9.60;99.90
6008;DHT22;3032;49.484;11.112;2024-03-02T01:54:16;9.80;99.90
6008;DHT22;3032;49.484;11.112;2024-03-02T01:56:41;9.60;99.90
6008;DHT22;3032;49.484;11.112;2024-03-02T01:59:07;9.50;99.90
6008;DHT22;3032;49.484;11.112;2024-03-02T02:01:32;9.40;99.90
6008;DHT22;3032;49.484;11.112;2024-03-02T02:03:58;9.60;99.90
6008;DHT22;3032;49.484;11.112;2024-03-02T02:06:24;9.80;99.90
6008;DHT22;3032;49.484;11.112;2024-03-02T02:08:49;10.50;99.90
6008;DHT22;3032;49.484;11.112;2024-03-02T02:11:16;10.10;99.90
6008;DHT22;3032;49.484;11.112;2024-03-02T02:13:41;10.40;99.90
6008;DHT22;3032;49.484;11.112;2024-03-02T02:16:07;10.10;99.90
6008;DHT22;3032;49.484;11.112;2024-03-02T02:18:33;9.90;99.90
6008;DHT22;3032;49.484;11.112;2024-03-02T02:20:59;9.70;99.90
6008;DHT22;3032;49.484;11.112;2024-03-02T02:23:25;9.40;99.90
6008;DHT22;3032;49.484;11.112;2024-03-02T02:25:50;9.40;99.90
6008;DHT22;3032;49.484;11.112;2024-03-02T02:28:16;9.40;99.90
6008;DHT22;3032;49.484;11.112;2024-03-02T02:30:42;9.20;99.90
6008;DHT22;3032;49.484;11.112;2024-03-02T02:33:08;9.10;99.90
6008;DHT22;3032;49.484;11.112;2024-03-02T02:35:34;9.30;99.90
6008;DHT22;3032;49.484;11.112;2024-03-02T02:38:00;9.90;99.90
6008;DHT22;3032;49.484;11.112;2024-03-02T02:40:26;9.60;99.90
6008;DHT22;3032;49.484;11.112;2024-03-02T02:42:52;9.60;99.90
6008;DHT22;3032;49.484;11.112;2024-03-02T02:45:17;10.20;99.90
6008;DHT22;3032;49.484;11.112;2024-03-02T02:47:44;9.80;99.90
6008;DHT22;3032;49.484;11.112;2024-03-02T02:50:11;9.80;99.90
6008;DHT22;3032;49.484;11.112;2024-03-02T02:52:38;9.80;99.90
6008;DHT22;3032;49.484;11.112;2024-03-02T02:55:06;9.90;99.90
6008;DHT22;3032;49.484;11.112;2024-03-02T02:57:33;9.90;99.90
6008;DHT22;3032;49.484;11.112;2024-03-02T03:00:09;9.80;99.90
6008;DHT22;3032;49.484;11.112;2024-03-02T03:02:42;9.80;99.90
6008;DHT22;3032;49.484;11.112;2024-03-02T03:05:09;9.70;99.90
6008;DHT22;3032;49.484;11.112;2024-03-02T03:07:34;9.70;99.90
6008;DHT22;3032;49.484;11.112;2024-03-02T03:10:02;9.70;99.90
6008;DHT22;3032;49.484;11.112;2024-03-02T03:12:29;9.80;99.90
6008;DHT22;3032;49.484;11.112;2024-03-02T03:14:54;9.80;99.90
6008;DHT22;3032;49.484;11.112;2024-03-02T03:17:21;9.80;99.90
6008;DHT22;3032;49.484;11.112;2024-03-02T03:19:47;10.20;99.90
6008;DHT22;3032;49.484;11.112;2024-03-02T03:22:13;9.70;99.90
6008;DHT22;3032;49.484;11.112;2024-03-02T03:24:38;9.70;99.90
6008;DHT22;3032;49.484;11.112;2024-03-02T03:27:04;9.60;99.90
6008;DHT22;3032;49.484;11.112;2024-03-02T03:29:30;9.70;99.90
6008;DHT22;3032;49.484;11.112;2024-03-02T03:31:55;9.70;99.90
6008;DHT22;3032;49.484;11.112;2024-03-02T03:34:21;9.70;99.90
6008;DHT22;3032;49.484;11.112;2024-03-02T03:36:46;9.80;99.90
6008;DHT22;3032;49.484;11.112;2024-03-02T03:39:12;9.80;99.90
6008;DHT22;3032;49.484;11.112;2024-03-02T03:41:37;9.60;99.90
6008;DHT22;3032;49.484;11.112;2024-03-02T03:44:03;9.50;99.90
6008;DHT22;3032;49.484;11.112;2024-03-02T03:46:29;9.30;99.90
6008;DHT22;3032;49.484;11.112;2024-03-02T03:48:55;9.20;99.90
6008;DHT22;3032;49.484;11.112;2024-03-02T03:51:21;9.20;99.90
6008;DHT22;3032;49.484;11.112;2024-03-02T03:53:50;9.20;99.90
6008;DHT22;3032;49.484;11.112;2024-03-02T03:56:15;9.10;99.90
6008;DHT22;3032;49.484;11.112;2024-03-02T03:58:41;8.90;99.90
6008;DHT22;3032;49.484;11.112;2024-03-02T04:01:06;8.90;99.90
6008;DHT22;3032;49.484;11.112;2024-03-02T04:03:32;9.00;99.90
6008;DHT22;3032;49.484;11.112;2024-03-02T04:05:58;9.20;99.90
6008;DHT22;3032;49.484;11.112;2024-03-02T04:08:23;9.40;99.90
6008;DHT22;3032;49.484;11.112;2024-03-02T04:10:49;9.50;99.90
6008;DHT22;3032;49.484;11.112;2024-03-02T04:13:14;9.40;99.90
6008;DHT22;3032;49.484;11.112;2024-03-02T04:15:40;9.30;99.90
6008;DHT22;3032;49.484;11.112;2024-03-02T04:18:08;9.30;99.90
6008;DHT22;3032;49.484;11.112;2024-03-02T04:20:34;9.20;99.90
6008;DHT22;3032;49.484;11.112;2024-03-02T04:22:59;9.30;99.90
6008;DHT22;3032;49.484;11.112;2024-03-02T04:25:25;9.20;99.90
6008;DHT22;3032;49.484;11.112;2024-03-02T04:27:50;9.20;99.90
6008;DHT22;3032;49.484;11.112;2024-03-02T04:30:16;9.00;99.90
6008;DHT22;3032;49.484;11.112;2024-03-02T04:32:41;8.60;99.90
6008;DHT22;3032;49.484;11.112;2024-03-02T04:35:11;8.60;99.90
6008;DHT22;3032;49.484;11.112;2024-03-02T04:37:38;9.10;99.90
6008;DHT22;3032;49.484;11.112;2024-03-02T04:40:04;8.60;99.90
6008;DHT22;3032;49.484;11.112;2024-03-02T04:42:30;8.60;99.90
6008;DHT22;3032;49.484;11.112;2024-03-02T04:44:56;8.30;99.90
6008;DHT22;3032;49.484;11.112;2024-03-02T04:47:21;8.40;99.90
6008;DHT22;3032;49.484;11.112;2024-03-02T04:49:48;8.50;99.90
6008;DHT22;3032;49.484;11.112;2024-03-02T04:52:13;8.70;99.90
6008;DHT22;3032;49.484;11.112;2024-03-02T04:54:39;8.90;99.90
6008;DHT22;3032;49.484;11.112;2024-03-02T04:57:23;8.70;99.90
6008;DHT22;3032;49.484;11.112;2024-03-02T04:59:49;8.70;99.90
6008;DHT22;3032;49.484;11.112;2024-03-02T05:02:14;8.70;99.90
6008;DHT22;3032;49.484;11.112;2024-03-02T05:04:40;8.70;99.90
6008;DHT22;3032;49.484;11.112;2024-03-02T05:07:07;8.60;99.90
6008;DHT22;3032;49.484;11.112;2024-03-02T05:09:32;8.60;99.90
6008;DHT22;3032;49.484;11.112;2024-03-02T05:11:58;8.30;99.90
6008;DHT22;3032;49.484;11.112;2024-03-02T05:14:30;8.30;99.90
6008;DHT22;3032;49.484;11.112;2024-03-02T05:16:55;8.30;99.90
6008;DHT22;3032;49.484;11.112;2024-03-02T05:19:21;8.30;99.90
6008;DHT22;3032;49.484;11.112;2024-03-02T05:21:46;8.00;99.90
6008;DHT22;3032;49.484;11.112;2024-03-02T05:24:12;8.10;99.90
6008;DHT22;3032;49.484;11.112;2024-03-02T05:26:37;8.10;99.90
6008;DHT22;3032;49.484;11.112;2024-03-02T05:29:03;8.10;99.90
6008;DHT22;3032;49.484;11.112;2024-03-02T05:31:28;8.30;99.90
6008;DHT22;3032;49.484;11.112;2024-03-02T05:33:54;8.40;99.90
6008;DHT22;3032;49.484;11.112;2024-03-02T05:36:19;8.30;99.90
6008;DHT22;3032;49.484;11.112;2024-03-02T05:38:46;8.50;99.90
6008;DHT22;3032;49.484;11.112;2024-03-02T05:41:11;8.50;99.90
6008;DHT22;3032;49.484;11.112;2024-03-02T05:43:37;8.30;99.90
6008;DHT22;3032;49.484;11.112;2024-03-02T05:46:03;8.00;99.90
6008;DHT22;3032;49.484;11.112;2024-03-02T05:48:28;8.00;99.90
6008;DHT22;3032;49.484;11.112;2024-03-02T05:50:54;8.30;99.90
6008;DHT22;3032;49.484;11.112;2024-03-02T05:53:19;8.30;99.90
6008;DHT22;3032;49.484;11.112;2024-03-02T05:55:45;8.20;99.90
6008;DHT22;3032;49.484;11.112;2024-03-02T05:58:10;8.20;99.90
6008;DHT22;3032;49.484;11.112;2024-03-02T06:00:55;7.90;99.90
6008;DHT22;3032;49.484;11.112;2024-03-02T06:03:20;7.80;99.90
6008;DHT22;3032;49.484;11.112;2024-03-02T06:05:46;7.80;99.90
6008;DHT22;3032;49.484;11.112;2024-03-02T06:08:14;7.90;99.90
6008;DHT22;3032;49.484;11.112;2024-03-02T06:10:40;7.90;99.90
6008;DHT22;3032;49.484;11.112;2024-03-02T06:13:05;7.90;99.90
6008;DHT22;3032;49.484;11.112;2024-03-02T06:15:31;7.90;99.90
6008;DHT22;3032;49.484;11.112;2024-03-02T06:17:57;7.90;99.90
6008;DHT22;3032;49.484;11.112;2024-03-02T06:20:22;8.00;99.90
6008;DHT22;3032;49.484;11.112;2024-03-02T06:22:48;8.20;99.90
6008;DHT22;3032;49.484;11.112;2024-03-02T06:25:13;8.10;99.90
6008;DHT22;3032;49.484;11.112;2024-03-02T06:27:39;8.30;99.90
6008;DHT22;3032;49.484;11.112;2024-03-02T06:30:05;8.40;99.90
6008;DHT22;3032;49.484;11.112;2024-03-02T06:32:30;8.50;99.90
6008;DHT22;3032;49.484;11.112;2024-03-02T06:34:56;8.50;99.90
6008;DHT22;3032;49.484;11.112;2024-03-02T06:37:22;8.30;99.90
6008;DHT22;3032;49.484;11.112;2024-03-02T06:39:47;8.40;99.90
6008;DHT22;3032;49.484;11.112;2024-03-02T06:42:13;8.50;99.90
6008;DHT22;3032;49.484;11.112;2024-03-02T06:44:38;8.50;99.90
6008;DHT22;3032;49.484;11.112;2024-03-02T06:47:04;8.60;99.90
6008;DHT22;3032;49.484;11.112;2024-03-02T06:49:30;8.40;99.90
6008;DHT22;3032;49.484;11.112;2024-03-02T06:51:55;8.40;99.90
6008;DHT22;3032;49.484;11.112;2024-03-02T06:54:21;8.60;99.90
6008;DHT22;3032;49.484;11.112;2024-03-02T06:56:46;8.70;99.90
6008;DHT22;3032;49.484;11.112;2024-03-02T06:59:12;8.90;99.90
6008;DHT22;3032;49.484;11.112;2024-03-02T07:01:38;9.00;99.90
6008;DHT22;3032;49.484;11.112;2024-03-02T07:04:03;8.90;99.90
6008;DHT22;3032;49.484;11.112;2024-03-02T07:06:32;8.80;99.90
6008;DHT22;3032;49.484;11.112;2024-03-02T07:08:57;9.00;99.90
6008;DHT22;3032;49.484;11.112;2024-03-02T07:11:23;9.20;99.90
6008;DHT22;3032;49.484;11.112;2024-03-02T07:13:48;9.20;99.90
6008;DHT22;3032;49.484;11.112;2024-03-02T07:16:14;9.70;99.90
6008;DHT22;3032;49.484;11.112;2024-03-02T07:18:58;10.00;99.90
6008;DHT22;3032;49.484;11.112;2024-03-02T07:21:24;10.50;99.90
6008;DHT22;3032;49.484;11.112;2024-03-02T07:23:50;10.90;99.90
6008;DHT22;3032;49.484;11.112;2024-03-02T07:26:16;11.10;99.90
6008;DHT22;3032;49.484;11.112;2024-03-02T07:28:44;11.70;99.90
6008;DHT22;3032;49.484;11.112;2024-03-02T07:31:09;13.10;99.90
6008;DHT22;3032;49.484;11.112;2024-03-02T07:33:35;14.50;99.90
6008;DHT22;3032;49.484;11.112;2024-03-02T07:36:01;16.10;99.90
6008;DHT22;3032;49.484;11.112;2024-03-02T07:38:28;17.90;99.90
6008;DHT22;3032;49.484;11.112;2024-03-02T07:40:54;18.90;99.90
6008;DHT22;3032;49.484;11.112;2024-03-02T07:43:19;17.60;99.90
6008;DHT22;3032;49.484;11.112;2024-03-02T07:45:46;16.00;99.90
6008;DHT22;3032;49.484;11.112;2024-03-02T07:48:11;14.70;99.90
6008;DHT22;3032;49.484;11.112;2024-03-02T07:50:37;13.30;99.90
6008;DHT22;3032;49.484;11.112;2024-03-02T07:53:04;12.50;99.90
6008;DHT22;3032;49.484;11.112;2024-03-02T07:55:30;12.40;99.90
6008;DHT22;3032;49.484;11.112;2024-03-02T07:58:00;12.10;99.90
6008;DHT22;3032;49.484;11.112;2024-03-02T08:00:26;12.10;99.90
6008;DHT22;3032;49.484;11.112;2024-03-02T08:02:52;12.10;99.90
6008;DHT22;3032;49.484;11.112;2024-03-02T08:05:18;11.70;99.90
6008;DHT22;3032;49.484;11.112;2024-03-02T08:07:47;11.40;99.90
6008;DHT22;3032;49.484;11.112;2024-03-02T08:10:13;11.10;99.90
6008;DHT22;3032;49.484;11.112;2024-03-02T08:12:39;11.00;99.90
6008;DHT22;3032;49.484;11.112;2024-03-02T08:15:05;11.00;99.90
6008;DHT22;3032;49.484;11.112;2024-03-02T08:17:31;11.20;99.90
6008;DHT22;3032;49.484;11.112;2024-03-02T08:19:57;11.10;99.90
6008;DHT22;3032;49.484;11.112;2024-03-02T08:22:23;11.10;99.90
6008;DHT22;3032;49.484;11.112;2024-03-02T08:24:51;10.70;99.90
6008;DHT22;3032;49.484;11.112;2024-03-02T08:27:17;10.80;99.90
6008;DHT22;3032;49.484;11.112;2024-03-02T08:29:42;10.70;99.90
6008;DHT22;3032;49.484;11.112;2024-03-02T08:32:08;11.00;99.90
6008;DHT22;3032;49.484;11.112;2024-03-02T08:34:33;11.30;99.90
6008;DHT22;3032;49.484;11.112;2024-03-02T08:37:02;11.40;99.90
6008;DHT22;3032;49.484;11.112;2024-03-02T08:39:28;11.90;99.90
6008;DHT22;3032;49.484;11.112;2024-03-02T08:41:54;12.50;99.90
6008;DHT22;3032;49.484;11.112;2024-03-02T08:44:20;13.50;99.90
6008;DHT22;3032;49.484;11.112;2024-03-02T08:46:46;14.10;99.90
6008;DHT22;3032;49.484;11.112;2024-03-02T08:49:12;14.70;99.90
6008;DHT22;3032;49.484;11.112;2024-03-02T08:51:38;15.10;99.90
6008;DHT22;3032;49.484;11.112;2024-03-02T08:54:03;15.80;99.90
6008;DHT22;3032;49.484;11.112;2024-03-02T08:56:30;15.70;99.90
6008;DHT22;3032;49.484;11.112;2024-03-02T08:58:56;15.60;99.90
6008;DHT22;3032;49.484;11.112;2024-03-02T09:01:21;15.60;99.90
6008;DHT22;3032;49.484;11.112;2024-03-02T09:03:47;16.50;99.90
6008;DHT22;3032;49.484;11.112;2024-03-02T09:06:14;17.10;99.90
6008;DHT22;3032;49.484;11.112;2024-03-02T09:08:42;16.30;99.90
6008;DHT22;3032;49.484;11.112;2024-03-02T09:11:09;16.00;99.90
6008;DHT22;3032;49.484;11.112;2024-03-02T09:13:36;15.40;99.90
6008;DHT22;3032;49.484;11.112;2024-03-02T09:16:02;15.30;99.90
6008;DHT22;3032;49.484;11.112;2024-03-02T09:18:28;14.70;99.90
6008;DHT22;3032;49.484;11.112;2024-03-02T09:20:53;15.00;99.90
6008;DHT22;3032;49.484;11.112;2024-03-02T09:23:19;14.90;99.90
6008;DHT22;3032;49.484;11.112;2024-03-02T09:25:44;14.20;99.90
6008;DHT22;3032;49.484;11.112;2024-03-02T09:28:10;14.60;99.90
6008;DHT22;3032;49.484;11.112;2024-03-02T09:30:36;14.70;99.90
6008;DHT22;3032;49.484;11.112;2024-03-02T09:33:01;14.80;99.90
6008;DHT22;3032;49.484;11.112;2024-03-02T09:35:27;14.70;99.90
6008;DHT22;3032;49.484;11.112;2024-03-02T09:37:52;15.00;99.90
6008;DHT22;3032;49.484;11.112;2024-03-02T09:40:21;15.70;99.90
6008;DHT22;3032;49.484;11.112;2024-03-02T09:42:47;15.20;99.90
6008;DHT22;3032;49.484;11.112;2024-03-02T09:45:22;15.10;99.90
6008;DHT22;3032;49.484;11.112;2024-03-02T09:47:48;15.00;99.90
6008;DHT22;3032;49.484;11.112;2024-03-02T09:50:13;14.90;99.90
6008;DHT22;3032;49.484;11.112;2024-03-02T09:52:41;15.00;99.90
6008;DHT22;3032;49.484;11.112;2024-03-02T09:55:08;15.10;99.90
6008;DHT22;3032;49.484;11.112;2024-03-02T09:57:33;15.40;99.90
6008;DHT22;3032;49.484;11.112;2024-03-02T09:59:59;15.40;99.90
6008;DHT22;3032;49.484;11.112;2024-03-02T10:02:24;15.40;99.90
6008;DHT22;3032;49.484;11.112;2024-03-02T10:04:50;15.20;99.90
6008;DHT22;3032;49.484;11.112;2024-03-02T10:07:17;15.20;99.90
6008;DHT22;3032;49.484;11.112;2024-03-02T10:09:47;15.10;99.90
6008;DHT22;3032;49.484;11.112;2024-03-02T10:12:14;15.40;99.90
6008;DHT22;3032;49.484;11.112;2024-03-02T10:14:41;15.90;99.90
6008;DHT22;3032;49.484;11.112;2024-03-02T10:17:13;15.90;99.90
6008;DHT22;3032;49.484;11.112;2024-03-02T10:19:39;16.40;99.90
6008;DHT22;3032;49.484;11.112;2024-03-02T10:22:06;16.40;99.90
6008;DHT22;3032;49.484;11.112;2024-03-02T10:24:40;16.20;99.90
6008;DHT22;3032;49.484;11.112;2024-03-02T10:27:16;16.40;99.90
6008;DHT22;3032;49.484;11.112;2024-03-02T10:29:41;16.30;99.90
6008;DHT22;3032;49.484;11.112;2024-03-02T10:32:11;16.10;99.90
6008;DHT22;3032;49.484;11.112;2024-03-02T10:34:37;16.10;99.90
6008;DHT22;3032;49.484;11.112;2024-03-02T10:37:05;16.30;99.90
6008;DHT22;3032;49.484;11.112;2024-03-02T10:39:31;16.30;99.90
6008;DHT22;3032;49.484;11.112;2024-03-02T10:41:57;16.10;99.90
6008;DHT22;3032;49.484;11.112;2024-03-02T10:44:24;16.60;99.90
6008;DHT22;3032;49.484;11.112;2024-03-02T10:46:54;16.60;99.90
6008;DHT22;3032;49.484;11.112;2024-03-02T10:49:23;16.80;99.90
6008;DHT22;3032;49.484;11.112;2024-03-02T10:51:49;16.50;99.90
6008;DHT22;3032;49.484;11.112;2024-03-02T10:54:15;16.40;99.90
6008;DHT22;3032;49.484;11.112;2024-03-02T10:56:42;16.80;99.90
6008;DHT22;3032;49.484;11.112;2024-03-02T10:59:28;17.20;99.80
6008;DHT22;3032;49.484;11.112;2024-03-02T11:01:59;17.40;98.50
6008;DHT22;3032;49.484;11.112;2024-03-02T11:04:30;17.40;98.30
6008;DHT22;3032;49.484;11.112;2024-03-02T11:07:04;16.70;98.50
6008;DHT22;3032;49.484;11.112;2024-03-02T11:09:35;17.30;97.40
6008;DHT22;3032;49.484;11.112;2024-03-02T11:12:03;16.80;97.70
6008;DHT22;3032;49.484;11.112;2024-03-02T11:14:31;16.40;98.50
6008;DHT22;3032;49.484;11.112;2024-03-02T11:17:02;16.30;98.70
6008;DHT22;3032;49.484;11.112;2024-03-02T11:19:29;16.10;99.40
6008;DHT22;3032;49.484;11.112;2024-03-02T11:21:55;16.00;98.70
6008;DHT22;3032;49.484;11.112;2024-03-02T11:26:47;16.40;99.90
6008;DHT22;3032;49.484;11.112;2024-03-02T11:32:14;15.90;99.90
6008;DHT22;3032;49.484;11.112;2024-03-02T11:34:42;15.70;99.90
6008;DHT22;3032;49.484;11.112;2024-03-02T11:37:13;15.30;99.90
6008;DHT22;3032;49.484;11.112;2024-03-02T11:39:39;15.30;99.90
6008;DHT22;3032;49.484;11.112;2024-03-02T11:42:08;15.10;99.90
6008;DHT22;3032;49.484;11.112;2024-03-02T11:44:37;15.00;99.90
6008;DHT22;3032;49.484;11.112;2024-03-02T11:47:06;15.50;99.90
6008;DHT22;3032;49.484;11.112;2024-03-02T11:49:46;15.80;99.90
6008;DHT22;3032;49.484;11.112;2024-03-02T11:52:14;15.60;99.90
6008;DHT22;3032;49.484;11.112;2024-03-02T11:54:42;15.40;99.90
6008;DHT22;3032;49.484;11.112;2024-03-02T11:57:21;15.30;99.90
6008;DHT22;3032;49.484;11.112;2024-03-02T11:59:49;15.10;99.90
6008;DHT22;3032;49.484;11.112;2024-03-02T12:02:19;14.90;99.90
6008;DHT22;3032;49.484;11.112;2024-03-02T12:04:47;15.00;99.90
6008;DHT22;3032;49.484;11.112;2024-03-02T12:07:19;14.80;99.90
6008;DHT22;3032;49.484;11.112;2024-03-02T12:09:46;14.50;99.90
6008;DHT22;3032;49.484;11.112;2024-03-02T12:12:12;14.30;99.90
6008;DHT22;3032;49.484;11.112;2024-03-02T12:14:40;14.50;99.90
6008;DHT22;3032;49.484;11.112;2024-03-02T12:17:06;14.40;99.90
6008;DHT22;3032;49.484;11.112;2024-03-02T12:19:32;14.40;99.90
6008;DHT22;3032;49.484;11.112;2024-03-02T12:21:58;15.00;99.90
6008;DHT22;3032;49.484;11.112;2024-03-02T12:24:26;15.50;99.90
6008;DHT22;3032;49.484;11.112;2024-03-02T12:26:51;15.00;99.90
6008;DHT22;3032;49.484;11.112;2024-03-02T12:29:19;15.00;99.90
6008;DHT22;3032;49.484;11.112;2024-03-02T12:31:48;14.80;99.90
6008;DHT22;3032;49.484;11.112;2024-03-02T12:34:15;14.60;99.90
6008;DHT22;3032;49.484;11.112;2024-03-02T12:36:41;14.50;99.90
6008;DHT22;3032;49.484;11.112;2024-03-02T12:39:08;14.30;99.90
6008;DHT22;3032;49.484;11.112;2024-03-02T12:41:37;14.40;99.90
6008;DHT22;3032;49.484;11.112;2024-03-02T12:44:03;14.60;99.90
6008;DHT22;3032;49.484;11.112;2024-03-02T12:46:30;14.70;99.90
6008;DHT22;3032;49.484;11.112;2024-03-02T12:48:55;14.40;99.90
6008;DHT22;3032;49.484;11.112;2024-03-02T12:51:21;14.50;99.90
6008;DHT22;3032;49.484;11.112;2024-03-02T12:53:54;15.10;99.90
6008;DHT22;3032;49.484;11.112;2024-03-02T12:56:20;15.80;99.90
6008;DHT22;3032;49.484;11.112;2024-03-02T12:58:45;16.50;99.60
6008;DHT22;3032;49.484;11.112;2024-03-02T13:01:11;16.80;99.00
6008;DHT22;3032;49.484;11.112;2024-03-02T13:03:38;16.40;98.30
6008;DHT22;3032;49.484;11.112;2024-03-02T13:06:05;16.20;99.00
6008;DHT22;3032;49.484;11.112;2024-03-02T13:08:31;15.80;99.40
6008;DHT22;3032;49.484;11.112;2024-03-02T13:10:57;15.80;99.90
6008;DHT22;3032;49.484;11.112;2024-03-02T13:13:23;15.20;99.50
6008;DHT22;3032;49.484;11.112;2024-03-02T13:15:48;14.90;99.80
6008;DHT22;3032;49.484;11.112;2024-03-02T13:18:14;14.70;99.90
6008;DHT22;3032;49.484;11.112;2024-03-02T13:20:39;15.00;99.90
6008;DHT22;3032;49.484;11.112;2024-03-02T13:23:05;15.20;99.40
6008;DHT22;3032;49.484;11.112;2024-03-02T13:25:31;15.30;99.10
6008;DHT22;3032;49.484;11.112;2024-03-02T13:27:57;15.10;99.50
6008;DHT22;3032;49.484;11.112;2024-03-02T13:30:24;14.80;99.80
6008;DHT22;3032;49.484;11.112;2024-03-02T13:32:50;14.90;99.90
6008;DHT22;3032;49.484;11.112;2024-03-02T13:35:15;15.10;99.90
6008;DHT22;3032;49.484;11.112;2024-03-02T13:37:41;15.20;99.90
6008;DHT22;3032;49.484;11.112;2024-03-02T13:40:07;15.30;99.90
6008;DHT22;3032;49.484;11.112;2024-03-02T13:42:39;15.10;99.90
6008;DHT22;3032;49.484;11.112;2024-03-02T13:45:05;14.80;99.90
6008;DHT22;3032;49.484;11.112;2024-03-02T13:47:31;15.30;99.80
6008;DHT22;3032;49.484;11.112;2024-03-02T13:49:56;16.20;99.60
6008;DHT22;3032;49.484;11.112;2024-03-02T13:52:22;16.20;99.40
6008;DHT22;3032;49.484;11.112;2024-03-02T13:54:49;16.50;99.10
6008;DHT22;3032;49.484;11.112;2024-03-02T13:57:14;16.50;98.30
6008;DHT22;3032;49.484;11.112;2024-03-02T13:59:41;16.70;97.70
6008;DHT22;3032;49.484;11.112;2024-03-02T14:02:08;15.90;97.20
6008;DHT22;3032;49.484;11.112;2024-03-02T14:04:34;15.40;98.10
6008;DHT22;3032;49.484;11.112;2024-03-02T14:07:00;15.60;98.30
6008;DHT22;3032;49.484;11.112;2024-03-02T14:09:26;15.70;98.10
6008;DHT22;3032;49.484;11.112;2024-03-02T14:11:52;15.90;98.00
6008;DHT22;3032;49.484;11.112;2024-03-02T14:14:18;16.10;97.70
6008;DHT22;3032;49.484;11.112;2024-03-02T14:16:44;16.20;97.70
6008;DHT22;3032;49.484;11.112;2024-03-02T14:19:10;16.00;98.20
6008;DHT22;3032;49.484;11.112;2024-03-02T14:21:37;15.90;98.50
6008;DHT22;3032;49.484;11.112;2024-03-02T14:24:03;15.50;99.10
6008;DHT22;3032;49.484;11.112;2024-03-02T14:26:28;15.60;99.10
6008;DHT22;3032;49.484;11.112;2024-03-02T14:28:54;15.80;99.30
6008;DHT22;3032;49.484;11.112;2024-03-02T14:31:20;15.90;99.00
6008;DHT22;3032;49.484;11.112;2024-03-02T14:33:46;15.80;98.80
6008;DHT22;3032;49.484;11.112;2024-03-02T14:36:11;15.60;99.20
6008;DHT22;3032;49.484;11.112;2024-03-02T14:38:38;15.80;99.40
6008;DHT22;3032;49.484;11.112;2024-03-02T14:41:04;15.90;99.50
6008;DHT22;3032;49.484;11.112;2024-03-02T14:43:30;15.50;99.40
6008;DHT22;3032;49.484;11.112;2024-03-02T14:45:56;15.30;99.80
6008;DHT22;3032;49.484;11.112;2024-03-02T14:48:22;15.20;99.90
6008;DHT22;3032;49.484;11.112;2024-03-02T14:50:48;15.10;99.90
6008;DHT22;3032;49.484;11.112;2024-03-02T14:53:13;15.10;99.90
6008;DHT22;3032;49.484;11.112;2024-03-02T14:55:39;14.90;99.90
6008;DHT22;3032;49.484;11.112;2024-03-02T14:58:04;14.50;99.90
6008;DHT22;3032;49.484;11.112;2024-03-02T15:00:30;14.60;99.90
6008;DHT22;3032;49.484;11.112;2024-03-02T15:02:56;14.40;99.90
6008;DHT22;3032;49.484;11.112;2024-03-02T15:05:21;14.40;99.90
6008;DHT22;3032;49.484;11.112;2024-03-02T15:07:47;14.10;99.90
6008;DHT22;3032;49.484;11.112;2024-03-02T15:10:13;13.90;99.90
6008;DHT22;3032;49.484;11.112;2024-03-02T15:12:38;13.90;99.90
6008;DHT22;3032;49.484;11.112;2024-03-02T15:15:04;14.00;99.90
6008;DHT22;3032;49.484;11.112;2024-03-02T15:17:30;13.70;99.90
6008;DHT22;3032;49.484;11.112;2024-03-02T15:19:55;13.60;99.90
6008;DHT22;3032;49.484;11.112;2024-03-02T15:22:21;13.40;99.90
6008;DHT22;3032;49.484;11.112;2024-03-02T15:24:46;13.40;99.90
6008;DHT22;3032;49.484;11.112;2024-03-02T15:27:12;13.40;99.90
6008;DHT22;3032;49.484;11.112;2024-03-02T15:29:38;13.40;99.90
6008;DHT22;3032;49.484;11.112;2024-03-02T15:32:05;13.40;99.90
6008;DHT22;3032;49.484;11.112;2024-03-02T15:34:32;13.20;99.90
6008;DHT22;3032;49.484;11.112;2024-03-02T15:36:58;12.90;99.90
6008;DHT22;3032;49.484;11.112;2024-03-02T15:39:23;12.80;99.90
6008;DHT22;3032;49.484;11.112;2024-03-02T15:41:49;12.60;99.90
6008;DHT22;3032;49.484;11.112;2024-03-02T15:44:14;12.30;99.90
6008;DHT22;3032;49.484;11.112;2024-03-02T15:46:40;12.20;99.90
6008;DHT22;3032;49.484;11.112;2024-03-02T15:49:06;12.40;99.90
6008;DHT22;3032;49.484;11.112;2024-03-02T15:51:33;12.50;99.90
6008;DHT22;3032;49.484;11.112;2024-03-02T15:54:01;12.30;99.90
6008;DHT22;3032;49.484;11.112;2024-03-02T15:56:27;11.70;99.90